Terminal Aerodrome Forecast
Issued by NWS

Home | Current Version | Previous Version | Text Only | Print | Product List | Glossary On
Versions: 1 2 3 4 5 6 7 8 9 10 11 12 13 14 15 16 17 18
000
FTUS43 KDLH 261740
TAFHYR
TAF
KHYR 261740Z 2618/2718 17005KT P6SM BKN120
     FM270100 18004KT P6SM SKC
     FM270600 00000KT 4SM BR SKC
     FM270800 00000KT 1 1/2SM BR SCT002
     FM271300 15005KT P6SM SCT100=

USA.gov is the U.S. government's official web portal to all federal, state and local government web resources and services.